sensor_id;sensor_type;location;lat;lon;timestamp;P1;durP1;ratioP1;P2;durP2;ratioP2
85763;SDS011;76207;39.772;2.706;2024-02-16T00:00:26;7.00;;;4.80;;
85763;SDS011;76207;39.772;2.706;2024-02-16T00:02:51;8.20;;;5.10;;
85763;SDS011;76207;39.772;2.706;2024-02-16T00:05:17;5.40;;;3.80;;
85763;SDS011;76207;39.772;2.706;2024-02-16T00:07:43;9.30;;;5.60;;
85763;SDS011;76207;39.772;2.706;2024-02-16T00:10:09;13.00;;;8.40;;
85763;SDS011;76207;39.772;2.706;2024-02-16T00:12:37;8.50;;;6.70;;
85763;SDS011;76207;39.772;2.706;2024-02-16T00:15:05;7.80;;;5.70;;
85763;SDS011;76207;39.772;2.706;2024-02-16T00:17:31;10.60;;;6.10;;
85763;SDS011;76207;39.772;2.706;2024-02-16T00:19:56;7.40;;;4.40;;
85763;SDS011;76207;39.772;2.706;2024-02-16T00:22:22;6.80;;;4.60;;
85763;SDS011;76207;39.772;2.706;2024-02-16T00:24:48;6.80;;;4.30;;
85763;SDS011;76207;39.772;2.706;2024-02-16T00:27:14;6.20;;;3.80;;
85763;SDS011;76207;39.772;2.706;2024-02-16T00:29:41;6.00;;;3.70;;
85763;SDS011;76207;39.772;2.706;2024-02-16T00:32:07;6.40;;;4.40;;
85763;SDS011;76207;39.772;2.706;2024-02-16T00:34:33;8.20;;;5.60;;
85763;SDS011;76207;39.772;2.706;2024-02-16T00:37:00;9.40;;;5.10;;
85763;SDS011;76207;39.772;2.706;2024-02-16T00:39:25;9.00;;;6.20;;
85763;SDS011;76207;39.772;2.706;2024-02-16T00:41:51;8.60;;;5.50;;
85763;SDS011;76207;39.772;2.706;2024-02-16T00:44:17;7.70;;;5.30;;
85763;SDS011;76207;39.772;2.706;2024-02-16T00:46:46;9.00;;;5.80;;
85763;SDS011;76207;39.772;2.706;2024-02-16T00:49:11;9.10;;;5.90;;
85763;SDS011;76207;39.772;2.706;2024-02-16T00:51:37;8.00;;;5.00;;
85763;SDS011;76207;39.772;2.706;2024-02-16T00:54:04;7.00;;;4.10;;
85763;SDS011;76207;39.772;2.706;2024-02-16T00:56:30;6.80;;;4.20;;
85763;SDS011;76207;39.772;2.706;2024-02-16T00:58:57;6.80;;;4.00;;
85763;SDS011;76207;39.772;2.706;2024-02-16T01:01:23;6.50;;;4.80;;
85763;SDS011;76207;39.772;2.706;2024-02-16T01:03:50;6.40;;;4.50;;
85763;SDS011;76207;39.772;2.706;2024-02-16T01:06:17;7.90;;;4.80;;
85763;SDS011;76207;39.772;2.706;2024-02-16T01:08:43;8.80;;;5.60;;
85763;SDS011;76207;39.772;2.706;2024-02-16T01:11:09;9.00;;;5.00;;
85763;SDS011;76207;39.772;2.706;2024-02-16T01:13:35;7.50;;;5.10;;
85763;SDS011;76207;39.772;2.706;2024-02-16T01:16:00;7.90;;;4.90;;
85763;SDS011;76207;39.772;2.706;2024-02-16T01:18:27;9.50;;;5.50;;
85763;SDS011;76207;39.772;2.706;2024-02-16T01:20:53;5.20;;;3.90;;
85763;SDS011;76207;39.772;2.706;2024-02-16T01:23:19;8.20;;;5.00;;
85763;SDS011;76207;39.772;2.706;2024-02-16T01:25:46;6.30;;;5.20;;
85763;SDS011;76207;39.772;2.706;2024-02-16T01:28:12;7.10;;;4.50;;
85763;SDS011;76207;39.772;2.706;2024-02-16T01:30:38;6.90;;;4.50;;
85763;SDS011;76207;39.772;2.706;2024-02-16T01:33:05;6.50;;;4.30;;
85763;SDS011;76207;39.772;2.706;2024-02-16T01:35:33;4.70;;;3.00;;
85763;SDS011;76207;39.772;2.706;2024-02-16T01:37:59;5.60;;;3.30;;
85763;SDS011;76207;39.772;2.706;2024-02-16T01:40:26;7.80;;;3.10;;
85763;SDS011;76207;39.772;2.706;2024-02-16T01:42:52;4.30;;;3.10;;
85763;SDS011;76207;39.772;2.706;2024-02-16T01:45:18;4.80;;;2.90;;
85763;SDS011;76207;39.772;2.706;2024-02-16T01:47:44;5.90;;;3.10;;
85763;SDS011;76207;39.772;2.706;2024-02-16T01:50:13;4.10;;;3.00;;
85763;SDS011;76207;39.772;2.706;2024-02-16T01:52:40;5.60;;;3.40;;
85763;SDS011;76207;39.772;2.706;2024-02-16T01:55:06;6.50;;;3.60;;
85763;SDS011;76207;39.772;2.706;2024-02-16T01:57:45;6.10;;;3.50;;
85763;SDS011;76207;39.772;2.706;2024-02-16T02:00:12;5.30;;;3.50;;
85763;SDS011;76207;39.772;2.706;2024-02-16T02:02:43;6.80;;;4.10;;
85763;SDS011;76207;39.772;2.706;2024-02-16T02:05:10;6.80;;;3.00;;
85763;SDS011;76207;39.772;2.706;2024-02-16T02:07:37;6.90;;;2.20;;
85763;SDS011;76207;39.772;2.706;2024-02-16T02:10:06;3.80;;;2.30;;
85763;SDS011;76207;39.772;2.706;2024-02-16T02:12:31;3.90;;;2.60;;
85763;SDS011;76207;39.772;2.706;2024-02-16T02:14:57;5.50;;;3.50;;
85763;SDS011;76207;39.772;2.706;2024-02-16T02:17:22;4.60;;;3.20;;
85763;SDS011;76207;39.772;2.706;2024-02-16T02:19:50;7.60;;;3.00;;
85763;SDS011;76207;39.772;2.706;2024-02-16T02:24:42;6.60;;;3.30;;
85763;SDS011;76207;39.772;2.706;2024-02-16T02:27:09;4.10;;;2.50;;
85763;SDS011;76207;39.772;2.706;2024-02-16T02:29:35;5.60;;;3.30;;
85763;SDS011;76207;39.772;2.706;2024-02-16T02:32:01;3.80;;;3.10;;
85763;SDS011;76207;39.772;2.706;2024-02-16T02:34:27;4.90;;;2.70;;
85763;SDS011;76207;39.772;2.706;2024-02-16T02:36:52;7.20;;;3.10;;
85763;SDS011;76207;39.772;2.706;2024-02-16T02:39:18;4.20;;;2.50;;
85763;SDS011;76207;39.772;2.706;2024-02-16T02:41:44;5.40;;;3.30;;
85763;SDS011;76207;39.772;2.706;2024-02-16T02:44:09;4.50;;;2.30;;
85763;SDS011;76207;39.772;2.706;2024-02-16T02:46:36;5.20;;;2.60;;
85763;SDS011;76207;39.772;2.706;2024-02-16T02:49:02;4.90;;;2.80;;
85763;SDS011;76207;39.772;2.706;2024-02-16T02:51:28;4.90;;;3.80;;
85763;SDS011;76207;39.772;2.706;2024-02-16T02:53:55;5.20;;;2.50;;
85763;SDS011;76207;39.772;2.706;2024-02-16T02:56:20;4.00;;;2.50;;
85763;SDS011;76207;39.772;2.706;2024-02-16T02:58:45;6.70;;;2.80;;
85763;SDS011;76207;39.772;2.706;2024-02-16T03:01:11;5.40;;;2.40;;
85763;SDS011;76207;39.772;2.706;2024-02-16T03:03:37;4.90;;;2.60;;
85763;SDS011;76207;39.772;2.706;2024-02-16T03:06:04;3.00;;;1.90;;
85763;SDS011;76207;39.772;2.706;2024-02-16T03:08:30;3.50;;;2.50;;
85763;SDS011;76207;39.772;2.706;2024-02-16T03:10:56;6.60;;;3.00;;
85763;SDS011;76207;39.772;2.706;2024-02-16T03:13:21;5.60;;;3.50;;
85763;SDS011;76207;39.772;2.706;2024-02-16T03:15:47;5.90;;;3.70;;
85763;SDS011;76207;39.772;2.706;2024-02-16T03:18:13;6.30;;;3.50;;
85763;SDS011;76207;39.772;2.706;2024-02-16T03:20:40;5.30;;;3.00;;
85763;SDS011;76207;39.772;2.706;2024-02-16T03:23:05;4.80;;;3.10;;
85763;SDS011;76207;39.772;2.706;2024-02-16T03:25:30;5.10;;;3.20;;
85763;SDS011;76207;39.772;2.706;2024-02-16T03:27:56;6.40;;;4.20;;
85763;SDS011;76207;39.772;2.706;2024-02-16T03:30:21;7.70;;;4.90;;
85763;SDS011;76207;39.772;2.706;2024-02-16T03:32:48;6.20;;;4.10;;
85763;SDS011;76207;39.772;2.706;2024-02-16T03:35:14;7.40;;;4.80;;
85763;SDS011;76207;39.772;2.706;2024-02-16T03:37:40;9.30;;;5.60;;
85763;SDS011;76207;39.772;2.706;2024-02-16T03:40:07;6.70;;;4.10;;
85763;SDS011;76207;39.772;2.706;2024-02-16T03:42:35;6.80;;;3.90;;
85763;SDS011;76207;39.772;2.706;2024-02-16T03:45:01;8.20;;;4.10;;
85763;SDS011;76207;39.772;2.706;2024-02-16T03:47:28;4.70;;;3.30;;
85763;SDS011;76207;39.772;2.706;2024-02-16T03:49:53;5.90;;;3.50;;
85763;SDS011;76207;39.772;2.706;2024-02-16T03:52:19;5.80;;;3.50;;
85763;SDS011;76207;39.772;2.706;2024-02-16T03:54:44;5.50;;;3.60;;
85763;SDS011;76207;39.772;2.706;2024-02-16T03:57:13;5.60;;;3.00;;
85763;SDS011;76207;39.772;2.706;2024-02-16T03:59:42;6.10;;;2.90;;
85763;SDS011;76207;39.772;2.706;2024-02-16T04:02:13;5.60;;;2.80;;
85763;SDS011;76207;39.772;2.706;2024-02-16T04:04:39;5.80;;;3.00;;
85763;SDS011;76207;39.772;2.706;2024-02-16T04:07:04;5.70;;;3.20;;
85763;SDS011;76207;39.772;2.706;2024-02-16T04:09:36;5.40;;;3.30;;
85763;SDS011;76207;39.772;2.706;2024-02-16T04:12:02;6.80;;;2.90;;
85763;SDS011;76207;39.772;2.706;2024-02-16T04:14:30;6.90;;;3.40;;
85763;SDS011;76207;39.772;2.706;2024-02-16T04:16:57;3.80;;;2.60;;
85763;SDS011;76207;39.772;2.706;2024-02-16T04:19:26;5.20;;;2.60;;
85763;SDS011;76207;39.772;2.706;2024-02-16T04:21:51;6.40;;;2.30;;
85763;SDS011;76207;39.772;2.706;2024-02-16T04:24:17;5.70;;;2.40;;
85763;SDS011;76207;39.772;2.706;2024-02-16T04:26:43;3.60;;;2.40;;
85763;SDS011;76207;39.772;2.706;2024-02-16T04:29:09;4.60;;;2.70;;
85763;SDS011;76207;39.772;2.706;2024-02-16T04:31:38;4.70;;;3.00;;
85763;SDS011;76207;39.772;2.706;2024-02-16T04:34:05;6.10;;;3.90;;
85763;SDS011;76207;39.772;2.706;2024-02-16T04:36:31;4.50;;;2.90;;
85763;SDS011;76207;39.772;2.706;2024-02-16T04:38:56;6.10;;;2.90;;
85763;SDS011;76207;39.772;2.706;2024-02-16T04:41:22;4.20;;;2.80;;
85763;SDS011;76207;39.772;2.706;2024-02-16T04:43:47;8.30;;;4.40;;
85763;SDS011;76207;39.772;2.706;2024-02-16T04:46:13;9.80;;;3.60;;
85763;SDS011;76207;39.772;2.706;2024-02-16T04:48:42;6.20;;;3.00;;
85763;SDS011;76207;39.772;2.706;2024-02-16T04:51:08;5.80;;;2.80;;
85763;SDS011;76207;39.772;2.706;2024-02-16T04:53:34;5.80;;;2.90;;
85763;SDS011;76207;39.772;2.706;2024-02-16T04:55:59;6.40;;;2.70;;
85763;SDS011;76207;39.772;2.706;2024-02-16T04:58:27;5.80;;;3.30;;
85763;SDS011;76207;39.772;2.706;2024-02-16T05:00:52;5.40;;;2.70;;
85763;SDS011;76207;39.772;2.706;2024-02-16T05:03:18;3.50;;;1.80;;
85763;SDS011;76207;39.772;2.706;2024-02-16T05:05:43;8.60;;;3.70;;
85763;SDS011;76207;39.772;2.706;2024-02-16T05:08:09;5.80;;;2.90;;
85763;SDS011;76207;39.772;2.706;2024-02-16T05:10:34;5.60;;;2.60;;
85763;SDS011;76207;39.772;2.706;2024-02-16T05:13:00;4.50;;;2.20;;
85763;SDS011;76207;39.772;2.706;2024-02-16T05:15:25;4.30;;;2.40;;
85763;SDS011;76207;39.772;2.706;2024-02-16T05:17:51;4.70;;;2.70;;
85763;SDS011;76207;39.772;2.706;2024-02-16T05:20:16;4.30;;;2.30;;
85763;SDS011;76207;39.772;2.706;2024-02-16T05:22:44;4.60;;;2.30;;
85763;SDS011;76207;39.772;2.706;2024-02-16T05:25:11;5.40;;;2.50;;
85763;SDS011;76207;39.772;2.706;2024-02-16T05:27:37;4.90;;;2.20;;
85763;SDS011;76207;39.772;2.706;2024-02-16T05:30:03;4.10;;;2.20;;
85763;SDS011;76207;39.772;2.706;2024-02-16T05:32:34;5.50;;;2.80;;
85763;SDS011;76207;39.772;2.706;2024-02-16T05:35:00;8.60;;;4.60;;
85763;SDS011;76207;39.772;2.706;2024-02-16T05:37:29;7.30;;;3.20;;
85763;SDS011;76207;39.772;2.706;2024-02-16T05:39:57;6.30;;;2.90;;
85763;SDS011;76207;39.772;2.706;2024-02-16T05:42:33;6.00;;;3.40;;
85763;SDS011;76207;39.772;2.706;2024-02-16T05:44:59;6.10;;;3.10;;
85763;SDS011;76207;39.772;2.706;2024-02-16T05:47:25;6.10;;;2.80;;
85763;SDS011;76207;39.772;2.706;2024-02-16T05:49:50;6.00;;;3.00;;
85763;SDS011;76207;39.772;2.706;2024-02-16T05:52:16;7.40;;;3.30;;
85763;SDS011;76207;39.772;2.706;2024-02-16T05:54:44;6.40;;;3.40;;
85763;SDS011;76207;39.772;2.706;2024-02-16T05:57:10;6.00;;;3.00;;
85763;SDS011;76207;39.772;2.706;2024-02-16T05:59:37;6.20;;;2.90;;
85763;SDS011;76207;39.772;2.706;2024-02-16T06:02:03;7.30;;;2.80;;
85763;SDS011;76207;39.772;2.706;2024-02-16T06:04:31;6.90;;;3.00;;
85763;SDS011;76207;39.772;2.706;2024-02-16T06:06:56;7.20;;;3.40;;
85763;SDS011;76207;39.772;2.706;2024-02-16T06:09:22;8.30;;;3.20;;
85763;SDS011;76207;39.772;2.706;2024-02-16T06:11:47;5.80;;;3.10;;
85763;SDS011;76207;39.772;2.706;2024-02-16T06:14:13;6.90;;;3.20;;
85763;SDS011;76207;39.772;2.706;2024-02-16T06:16:40;9.90;;;5.90;;
85763;SDS011;76207;39.772;2.706;2024-02-16T06:19:07;10.30;;;7.50;;
85763;SDS011;76207;39.772;2.706;2024-02-16T06:21:34;11.60;;;6.70;;
85763;SDS011;76207;39.772;2.706;2024-02-16T06:24:00;7.40;;;5.20;;
85763;SDS011;76207;39.772;2.706;2024-02-16T06:26:26;8.20;;;5.00;;
85763;SDS011;76207;39.772;2.706;2024-02-16T06:28:51;7.20;;;4.00;;
85763;SDS011;76207;39.772;2.706;2024-02-16T06:31:17;9.70;;;4.80;;
85763;SDS011;76207;39.772;2.706;2024-02-16T06:33:42;8.50;;;4.70;;
85763;SDS011;76207;39.772;2.706;2024-02-16T06:36:08;8.30;;;4.80;;
85763;SDS011;76207;39.772;2.706;2024-02-16T06:38:35;9.90;;;5.00;;
85763;SDS011;76207;39.772;2.706;2024-02-16T06:41:02;13.90;;;4.90;;
85763;SDS011;76207;39.772;2.706;2024-02-16T06:43:28;10.70;;;4.70;;
85763;SDS011;76207;39.772;2.706;2024-02-16T06:45:54;7.90;;;3.40;;
85763;SDS011;76207;39.772;2.706;2024-02-16T06:48:21;10.10;;;3.60;;
85763;SDS011;76207;39.772;2.706;2024-02-16T06:50:47;6.00;;;3.60;;
85763;SDS011;76207;39.772;2.706;2024-02-16T06:53:13;7.40;;;4.10;;
85763;SDS011;76207;39.772;2.706;2024-02-16T06:55:38;8.10;;;3.90;;
85763;SDS011;76207;39.772;2.706;2024-02-16T06:58:04;8.70;;;3.60;;
85763;SDS011;76207;39.772;2.706;2024-02-16T07:00:29;9.90;;;4.10;;
85763;SDS011;76207;39.772;2.706;2024-02-16T07:02:55;6.00;;;3.40;;
85763;SDS011;76207;39.772;2.706;2024-02-16T07:05:20;9.80;;;3.80;;
85763;SDS011;76207;39.772;2.706;2024-02-16T07:07:46;7.20;;;3.20;;
85763;SDS011;76207;39.772;2.706;2024-02-16T07:10:11;6.40;;;3.80;;
85763;SDS011;76207;39.772;2.706;2024-02-16T07:12:39;15.00;;;3.70;;
85763;SDS011;76207;39.772;2.706;2024-02-16T07:15:05;5.00;;;2.90;;
85763;SDS011;76207;39.772;2.706;2024-02-16T07:17:31;7.70;;;3.10;;
85763;SDS011;76207;39.772;2.706;2024-02-16T07:19:57;6.70;;;3.00;;
85763;SDS011;76207;39.772;2.706;2024-02-16T07:22:22;7.80;;;3.20;;
85763;SDS011;76207;39.772;2.706;2024-02-16T07:24:48;6.70;;;3.40;;
85763;SDS011;76207;39.772;2.706;2024-02-16T07:27:13;9.40;;;3.00;;
85763;SDS011;76207;39.772;2.706;2024-02-16T07:29:39;9.30;;;3.20;;
85763;SDS011;76207;39.772;2.706;2024-02-16T07:32:04;24.10;;;6.00;;
85763;SDS011;76207;39.772;2.706;2024-02-16T07:34:30;9.50;;;3.60;;
85763;SDS011;76207;39.772;2.706;2024-02-16T07:36:56;11.10;;;3.20;;
85763;SDS011;76207;39.772;2.706;2024-02-16T07:39:22;6.90;;;3.40;;
85763;SDS011;76207;39.772;2.706;2024-02-16T07:41:48;10.30;;;3.20;;
85763;SDS011;76207;39.772;2.706;2024-02-16T07:44:14;11.30;;;3.50;;
85763;SDS011;76207;39.772;2.706;2024-02-16T07:46:42;7.30;;;3.80;;
85763;SDS011;76207;39.772;2.706;2024-02-16T07:49:11;9.40;;;3.80;;
85763;SDS011;76207;39.772;2.706;2024-02-16T07:51:36;10.90;;;4.10;;
85763;SDS011;76207;39.772;2.706;2024-02-16T07:54:02;15.10;;;4.80;;
85763;SDS011;76207;39.772;2.706;2024-02-16T07:56:28;13.60;;;4.70;;
85763;SDS011;76207;39.772;2.706;2024-02-16T07:58:55;7.50;;;4.10;;
85763;SDS011;76207;39.772;2.706;2024-02-16T08:01:21;9.10;;;4.50;;
85763;SDS011;76207;39.772;2.706;2024-02-16T08:03:46;8.60;;;4.80;;
85763;SDS011;76207;39.772;2.706;2024-02-16T08:06:13;11.20;;;5.10;;
85763;SDS011;76207;39.772;2.706;2024-02-16T08:08:39;12.00;;;5.80;;
85763;SDS011;76207;39.772;2.706;2024-02-16T08:11:04;15.10;;;5.20;;
85763;SDS011;76207;39.772;2.706;2024-02-16T08:13:30;11.50;;;4.90;;
85763;SDS011;76207;39.772;2.706;2024-02-16T08:15:55;12.50;;;5.50;;
85763;SDS011;76207;39.772;2.706;2024-02-16T08:18:21;12.90;;;7.50;;
85763;SDS011;76207;39.772;2.706;2024-02-16T08:20:47;13.10;;;7.60;;
85763;SDS011;76207;39.772;2.706;2024-02-16T08:23:13;19.60;;;9.20;;
85763;SDS011;76207;39.772;2.706;2024-02-16T08:25:38;13.80;;;8.10;;
85763;SDS011;76207;39.772;2.706;2024-02-16T08:28:04;13.60;;;8.50;;
85763;SDS011;76207;39.772;2.706;2024-02-16T08:30:30;15.20;;;8.30;;
85763;SDS011;76207;39.772;2.706;2024-02-16T08:32:55;18.00;;;8.30;;
85763;SDS011;76207;39.772;2.706;2024-02-16T08:35:23;13.70;;;8.80;;
85763;SDS011;76207;39.772;2.706;2024-02-16T08:37:48;17.20;;;9.00;;
85763;SDS011;76207;39.772;2.706;2024-02-16T08:40:14;16.10;;;10.20;;
85763;SDS011;76207;39.772;2.706;2024-02-16T08:42:40;33.10;;;22.40;;
85763;SDS011;76207;39.772;2.706;2024-02-16T08:45:07;32.40;;;19.40;;
85763;SDS011;76207;39.772;2.706;2024-02-16T08:47:34;29.10;;;17.80;;
85763;SDS011;76207;39.772;2.706;2024-02-16T08:49:59;20.10;;;12.10;;
85763;SDS011;76207;39.772;2.706;2024-02-16T08:52:25;20.70;;;11.90;;
85763;SDS011;76207;39.772;2.706;2024-02-16T08:54:51;40.90;;;21.80;;
85763;SDS011;76207;39.772;2.706;2024-02-16T08:57:16;58.80;;;32.70;;
85763;SDS011;76207;39.772;2.706;2024-02-16T08:59:42;59.00;;;32.40;;
85763;SDS011;76207;39.772;2.706;2024-02-16T09:02:09;67.70;;;36.20;;
85763;SDS011;76207;39.772;2.706;2024-02-16T09:04:35;32.90;;;21.20;;
85763;SDS011;76207;39.772;2.706;2024-02-16T09:07:01;41.30;;;23.00;;
85763;SDS011;76207;39.772;2.706;2024-02-16T09:09:27;36.50;;;19.90;;
85763;SDS011;76207;39.772;2.706;2024-02-16T09:11:53;39.50;;;21.20;;
85763;SDS011;76207;39.772;2.706;2024-02-16T09:14:19;37.20;;;22.90;;
85763;SDS011;76207;39.772;2.706;2024-02-16T09:16:48;26.60;;;16.40;;
85763;SDS011;76207;39.772;2.706;2024-02-16T09:19:16;34.30;;;16.70;;
85763;SDS011;76207;39.772;2.706;2024-02-16T09:21:42;23.30;;;14.90;;
85763;SDS011;76207;39.772;2.706;2024-02-16T09:24:07;29.80;;;18.30;;
85763;SDS011;76207;39.772;2.706;2024-02-16T09:26:36;41.40;;;24.30;;
85763;SDS011;76207;39.772;2.706;2024-02-16T09:29:02;32.30;;;20.60;;
85763;SDS011;76207;39.772;2.706;2024-02-16T09:31:29;30.20;;;20.50;;
85763;SDS011;76207;39.772;2.706;2024-02-16T09:33:54;34.90;;;18.40;;
85763;SDS011;76207;39.772;2.706;2024-02-16T09:36:20;17.90;;;9.60;;
85763;SDS011;76207;39.772;2.706;2024-02-16T09:38:45;15.20;;;7.60;;
85763;SDS011;76207;39.772;2.706;2024-02-16T09:41:11;14.10;;;7.40;;
85763;SDS011;76207;39.772;2.706;2024-02-16T09:43:38;13.60;;;7.90;;
85763;SDS011;76207;39.772;2.706;2024-02-16T09:46:05;17.40;;;8.50;;
85763;SDS011;76207;39.772;2.706;2024-02-16T09:48:31;17.10;;;7.50;;
85763;SDS011;76207;39.772;2.706;2024-02-16T09:50:57;14.20;;;8.30;;
85763;SDS011;76207;39.772;2.706;2024-02-16T09:53:27;21.00;;;8.40;;
85763;SDS011;76207;39.772;2.706;2024-02-16T09:55:54;18.80;;;9.30;;
85763;SDS011;76207;39.772;2.706;2024-02-16T09:58:20;18.00;;;8.20;;
85763;SDS011;76207;39.772;2.706;2024-02-16T10:03:21;14.20;;;7.40;;
85763;SDS011;76207;39.772;2.706;2024-02-16T10:05:48;14.40;;;6.60;;
85763;SDS011;76207;39.772;2.706;2024-02-16T10:08:13;14.30;;;7.40;;
85763;SDS011;76207;39.772;2.706;2024-02-16T10:10:39;13.00;;;5.70;;
85763;SDS011;76207;39.772;2.706;2024-02-16T10:13:05;17.00;;;6.60;;
85763;SDS011;76207;39.772;2.706;2024-02-16T10:15:32;15.00;;;6.80;;
85763;SDS011;76207;39.772;2.706;2024-02-16T10:18:04;10.60;;;4.70;;
85763;SDS011;76207;39.772;2.706;2024-02-16T10:20:32;11.50;;;3.70;;
85763;SDS011;76207;39.772;2.706;2024-02-16T10:23:02;9.80;;;2.60;;
85763;SDS011;76207;39.772;2.706;2024-02-16T10:25:28;9.00;;;2.60;;
85763;SDS011;76207;39.772;2.706;2024-02-16T10:27:54;8.70;;;2.80;;
85763;SDS011;76207;39.772;2.706;2024-02-16T10:30:23;10.30;;;2.40;;
85763;SDS011;76207;39.772;2.706;2024-02-16T10:32:54;9.30;;;2.60;;
85763;SDS011;76207;39.772;2.706;2024-02-16T10:35:19;9.60;;;2.50;;
85763;SDS011;76207;39.772;2.706;2024-02-16T10:37:49;11.00;;;3.20;;
85763;SDS011;76207;39.772;2.706;2024-02-16T10:40:15;10.10;;;3.20;;
85763;SDS011;76207;39.772;2.706;2024-02-16T10:42:47;11.60;;;3.20;;
85763;SDS011;76207;39.772;2.706;2024-02-16T10:45:16;8.50;;;3.00;;
85763;SDS011;76207;39.772;2.706;2024-02-16T10:47:43;9.90;;;3.20;;
85763;SDS011;76207;39.772;2.706;2024-02-16T10:50:09;9.60;;;3.70;;
85763;SDS011;76207;39.772;2.706;2024-02-16T10:52:36;9.20;;;2.50;;
85763;SDS011;76207;39.772;2.706;2024-02-16T10:55:06;10.30;;;2.70;;
85763;SDS011;76207;39.772;2.706;2024-02-16T10:57:32;12.10;;;2.80;;
85763;SDS011;76207;39.772;2.706;2024-02-16T11:00:06;7.40;;;3.00;;
85763;SDS011;76207;39.772;2.706;2024-02-16T11:02:50;7.40;;;3.10;;
85763;SDS011;76207;39.772;2.706;2024-02-16T11:05:39;7.90;;;3.20;;
85763;SDS011;76207;39.772;2.706;2024-02-16T11:08:13;10.30;;;3.30;;
85763;SDS011;76207;39.772;2.706;2024-02-16T11:10:40;7.30;;;2.60;;
85763;SDS011;76207;39.772;2.706;2024-02-16T11:13:06;8.90;;;2.90;;
85763;SDS011;76207;39.772;2.706;2024-02-16T11:15:32;7.00;;;2.40;;
85763;SDS011;76207;39.772;2.706;2024-02-16T11:18:02;9.30;;;3.40;;
85763;SDS011;76207;39.772;2.706;2024-02-16T11:20:35;7.40;;;2.60;;
85763;SDS011;76207;39.772;2.706;2024-02-16T11:23:05;9.70;;;2.70;;
85763;SDS011;76207;39.772;2.706;2024-02-16T11:25:32;7.20;;;2.40;;
85763;SDS011;76207;39.772;2.706;2024-02-16T11:27:58;10.50;;;2.60;;
85763;SDS011;76207;39.772;2.706;2024-02-16T11:30:25;10.10;;;3.40;;
85763;SDS011;76207;39.772;2.706;2024-02-16T11:32:51;8.20;;;2.80;;
85763;SDS011;76207;39.772;2.706;2024-02-16T11:35:17;11.70;;;3.10;;
85763;SDS011;76207;39.772;2.706;2024-02-16T11:37:43;8.30;;;2.30;;
85763;SDS011;76207;39.772;2.706;2024-02-16T11:40:13;9.40;;;2.50;;
85763;SDS011;76207;39.772;2.706;2024-02-16T11:42:39;7.40;;;2.30;;
85763;SDS011;76207;39.772;2.706;2024-02-16T11:45:05;11.40;;;2.60;;
85763;SDS011;76207;39.772;2.706;2024-02-16T11:47:31;7.50;;;2.20;;
85763;SDS011;76207;39.772;2.706;2024-02-16T11:50:09;9.10;;;2.70;;
85763;SDS011;76207;39.772;2.706;2024-02-16T11:52:39;11.50;;;2.70;;
85763;SDS011;76207;39.772;2.706;2024-02-16T11:55:09;12.10;;;2.60;;
85763;SDS011;76207;39.772;2.706;2024-02-16T12:00:05;7.40;;;2.40;;
85763;SDS011;76207;39.772;2.706;2024-02-16T12:02:39;7.30;;;2.50;;
85763;SDS011;76207;39.772;2.706;2024-02-16T12:05:05;14.00;;;3.00;;
85763;SDS011;76207;39.772;2.706;2024-02-16T12:07:32;6.80;;;2.80;;
85763;SDS011;76207;39.772;2.706;2024-02-16T12:10:00;7.50;;;2.60;;
85763;SDS011;76207;39.772;2.706;2024-02-16T12:12:26;10.20;;;2.60;;
85763;SDS011;76207;39.772;2.706;2024-02-16T12:14:55;7.30;;;2.40;;
85763;SDS011;76207;39.772;2.706;2024-02-16T12:17:22;9.30;;;2.70;;
85763;SDS011;76207;39.772;2.706;2024-02-16T12:19:49;10.30;;;2.40;;
85763;SDS011;76207;39.772;2.706;2024-02-16T12:22:18;8.70;;;2.40;;
85763;SDS011;76207;39.772;2.706;2024-02-16T12:24:45;9.10;;;2.40;;
85763;SDS011;76207;39.772;2.706;2024-02-16T12:27:15;7.70;;;2.10;;
85763;SDS011;76207;39.772;2.706;2024-02-16T12:29:41;9.50;;;2.80;;
85763;SDS011;76207;39.772;2.706;2024-02-16T12:32:06;9.20;;;3.00;;
85763;SDS011;76207;39.772;2.706;2024-02-16T12:34:34;10.20;;;3.00;;
85763;SDS011;76207;39.772;2.706;2024-02-16T12:37:06;8.70;;;2.70;;
85763;SDS011;76207;39.772;2.706;2024-02-16T12:39:34;11.10;;;3.20;;
85763;SDS011;76207;39.772;2.706;2024-02-16T12:42:00;12.20;;;3.10;;
85763;SDS011;76207;39.772;2.706;2024-02-16T12:44:25;10.40;;;2.70;;
85763;SDS011;76207;39.772;2.706;2024-02-16T12:46:51;6.70;;;2.40;;
85763;SDS011;76207;39.772;2.706;2024-02-16T12:49:16;6.90;;;2.80;;
85763;SDS011;76207;39.772;2.706;2024-02-16T12:51:42;7.30;;;2.60;;
85763;SDS011;76207;39.772;2.706;2024-02-16T12:54:08;8.80;;;3.00;;
85763;SDS011;76207;39.772;2.706;2024-02-16T12:56:38;7.70;;;2.60;;
85763;SDS011;76207;39.772;2.706;2024-02-16T12:59:05;7.20;;;2.40;;
85763;SDS011;76207;39.772;2.706;2024-02-16T13:01:31;7.60;;;2.70;;
85763;SDS011;76207;39.772;2.706;2024-02-16T13:03:56;7.10;;;2.20;;
85763;SDS011;76207;39.772;2.706;2024-02-16T13:06:22;10.70;;;2.40;;
85763;SDS011;76207;39.772;2.706;2024-02-16T13:08:48;11.50;;;2.70;;
85763;SDS011;76207;39.772;2.706;2024-02-16T13:11:14;6.70;;;2.30;;
85763;SDS011;76207;39.772;2.706;2024-02-16T13:13:39;9.30;;;2.80;;
85763;SDS011;76207;39.772;2.706;2024-02-16T13:16:05;7.00;;;2.70;;
85763;SDS011;76207;39.772;2.706;2024-02-16T13:18:31;10.20;;;3.10;;
85763;SDS011;76207;39.772;2.706;2024-02-16T13:20:56;6.50;;;2.60;;
85763;SDS011;76207;39.772;2.706;2024-02-16T13:23:21;9.20;;;2.60;;
85763;SDS011;76207;39.772;2.706;2024-02-16T13:25:47;9.00;;;3.10;;
85763;SDS011;76207;39.772;2.706;2024-02-16T13:28:12;7.70;;;3.10;;
85763;SDS011;76207;39.772;2.706;2024-02-16T13:30:38;11.30;;;4.80;;
85763;SDS011;76207;39.772;2.706;2024-02-16T13:33:04;8.70;;;3.40;;
85763;SDS011;76207;39.772;2.706;2024-02-16T13:35:30;12.70;;;4.20;;
85763;SDS011;76207;39.772;2.706;2024-02-16T13:37:55;7.80;;;3.20;;
85763;SDS011;76207;39.772;2.706;2024-02-16T13:40:21;6.10;;;2.30;;
85763;SDS011;76207;39.772;2.706;2024-02-16T13:42:47;6.10;;;2.50;;
85763;SDS011;76207;39.772;2.706;2024-02-16T13:45:13;10.10;;;3.00;;
85763;SDS011;76207;39.772;2.706;2024-02-16T13:47:39;8.80;;;3.00;;
85763;SDS011;76207;39.772;2.706;2024-02-16T13:50:06;10.70;;;2.90;;
85763;SDS011;76207;39.772;2.706;2024-02-16T13:52:32;10.30;;;3.10;;
85763;SDS011;76207;39.772;2.706;2024-02-16T13:54:58;9.30;;;3.20;;
85763;SDS011;76207;39.772;2.706;2024-02-16T13:57:23;9.20;;;2.90;;
85763;SDS011;76207;39.772;2.706;2024-02-16T13:59:49;11.20;;;2.80;;
85763;SDS011;76207;39.772;2.706;2024-02-16T14:02:14;13.00;;;7.50;;
85763;SDS011;76207;39.772;2.706;2024-02-16T14:04:40;12.50;;;7.10;;
85763;SDS011;76207;39.772;2.706;2024-02-16T14:07:07;15.00;;;7.10;;
85763;SDS011;76207;39.772;2.706;2024-02-16T14:09:34;16.70;;;7.30;;
85763;SDS011;76207;39.772;2.706;2024-02-16T14:12:00;18.80;;;7.40;;
85763;SDS011;76207;39.772;2.706;2024-02-16T14:14:25;11.60;;;4.80;;
85763;SDS011;76207;39.772;2.706;2024-02-16T14:16:51;10.20;;;4.00;;
85763;SDS011;76207;39.772;2.706;2024-02-16T14:19:16;9.90;;;4.00;;
85763;SDS011;76207;39.772;2.706;2024-02-16T14:21:45;7.20;;;3.40;;
85763;SDS011;76207;39.772;2.706;2024-02-16T14:24:15;9.00;;;3.80;;
85763;SDS011;76207;39.772;2.706;2024-02-16T14:26:42;13.30;;;5.20;;
85763;SDS011;76207;39.772;2.706;2024-02-16T14:29:08;11.40;;;5.20;;
85763;SDS011;76207;39.772;2.706;2024-02-16T14:31:33;12.00;;;4.80;;
85763;SDS011;76207;39.772;2.706;2024-02-16T14:33:59;10.40;;;3.70;;
85763;SDS011;76207;39.772;2.706;2024-02-16T14:36:25;9.70;;;3.90;;
85763;SDS011;76207;39.772;2.706;2024-02-16T14:38:51;10.00;;;3.50;;
85763;SDS011;76207;39.772;2.706;2024-02-16T14:41:16;11.10;;;3.20;;
85763;SDS011;76207;39.772;2.706;2024-02-16T14:43:42;8.20;;;3.80;;
85763;SDS011;76207;39.772;2.706;2024-02-16T14:46:08;11.20;;;4.20;;